sensor_id;sensor_type;location;lat;lon;timestamp;pressure;altitude;pressure_sealevel;temperature;humidity
80188;BME280;73735;52.134;5.436;2024-03-08T00:00:09;102102.19;;;3.76;78.52
80188;BME280;73735;52.134;5.436;2024-03-08T00:02:39;102095.34;;;3.72;78.52
80188;BME280;73735;52.134;5.436;2024-03-08T00:05:07;102100.63;;;3.71;78.68
80188;BME280;73735;52.134;5.436;2024-03-08T00:07:35;102085.94;;;3.68;78.35
80188;BME280;73735;52.134;5.436;2024-03-08T00:10:06;102092.13;;;3.64;78.43
80188;BME280;73735;52.134;5.436;2024-03-08T00:12:33;102082.63;;;3.63;78.41
80188;BME280;73735;52.134;5.436;2024-03-08T00:15:00;102087.94;;;3.59;78.59
80188;BME280;73735;52.134;5.436;2024-03-08T00:17:27;102086.19;;;3.59;78.64
80188;BME280;73735;52.134;5.436;2024-03-08T00:19:53;102081.09;;;3.56;78.55
80188;BME280;73735;52.134;5.436;2024-03-08T00:22:20;102081.88;;;3.58;78.35
80188;BME280;73735;52.134;5.436;2024-03-08T00:24:48;102078.53;;;3.54;78.44
80188;BME280;73735;52.134;5.436;2024-03-08T00:27:16;102077.56;;;3.57;78.42
80188;BME280;73735;52.134;5.436;2024-03-08T00:29:43;102083.75;;;3.54;78.42
80188;BME280;73735;52.134;5.436;2024-03-08T00:32:09;102081.16;;;3.54;78.18
80188;BME280;73735;52.134;5.436;2024-03-08T00:34:37;102076.03;;;3.51;78.24
80188;BME280;73735;52.134;5.436;2024-03-08T00:37:04;102077.00;;;3.47;77.98
80188;BME280;73735;52.134;5.436;2024-03-08T00:39:30;102070.13;;;3.45;78.26
80188;BME280;73735;52.134;5.436;2024-03-08T00:41:57;102068.41;;;3.44;78.02
80188;BME280;73735;52.134;5.436;2024-03-08T00:44:23;102065.72;;;3.47;78.14
80188;BME280;73735;52.134;5.436;2024-03-08T00:46:51;102066.72;;;3.43;78.36
80188;BME280;73735;52.134;5.436;2024-03-08T00:49:20;102066.72;;;3.43;78.23
80188;BME280;73735;52.134;5.436;2024-03-08T00:51:48;102063.38;;;3.39;77.95
80188;BME280;73735;52.134;5.436;2024-03-08T00:54:14;102060.00;;;3.36;78.44
80188;BME280;73735;52.134;5.436;2024-03-08T00:56:42;102059.09;;;3.37;78.06
80188;BME280;73735;52.134;5.436;2024-03-08T00:59:09;102055.56;;;3.39;78.26
80188;BME280;73735;52.134;5.436;2024-03-08T01:01:36;102049.66;;;3.33;78.16
80188;BME280;73735;52.134;5.436;2024-03-08T01:04:02;102046.28;;;3.29;78.46
80188;BME280;73735;52.134;5.436;2024-03-08T01:06:29;102046.34;;;3.28;78.56
80188;BME280;73735;52.134;5.436;2024-03-08T01:08:55;102035.19;;;3.24;78.16
80188;BME280;73735;52.134;5.436;2024-03-08T01:11:21;102037.81;;;3.23;78.20
80188;BME280;73735;52.134;5.436;2024-03-08T01:13:48;102024.00;;;3.21;78.35
80188;BME280;73735;52.134;5.436;2024-03-08T01:16:15;102022.41;;;3.15;78.30
80188;BME280;73735;52.134;5.436;2024-03-08T01:18:43;102021.56;;;3.14;78.34
80188;BME280;73735;52.134;5.436;2024-03-08T01:21:10;102017.25;;;3.13;78.14
80188;BME280;73735;52.134;5.436;2024-03-08T01:23:37;102015.50;;;3.14;78.51
80188;BME280;73735;52.134;5.436;2024-03-08T01:26:04;102006.09;;;3.10;78.11
80188;BME280;73735;52.134;5.436;2024-03-08T01:28:30;102011.59;;;2.99;78.27
80188;BME280;73735;52.134;5.436;2024-03-08T01:30:57;102012.41;;;3.01;78.56
80188;BME280;73735;52.134;5.436;2024-03-08T01:33:25;102011.50;;;3.02;78.35
80188;BME280;73735;52.134;5.436;2024-03-08T01:35:55;102002.06;;;2.98;78.48
80188;BME280;73735;52.134;5.436;2024-03-08T01:38:23;101997.06;;;2.92;78.43
80188;BME280;73735;52.134;5.436;2024-03-08T01:40:50;101993.56;;;2.93;78.30
80188;BME280;73735;52.134;5.436;2024-03-08T01:45:43;101991.06;;;2.90;78.35
80188;BME280;73735;52.134;5.436;2024-03-08T01:48:10;101987.63;;;2.88;78.31
80188;BME280;73735;52.134;5.436;2024-03-08T01:50:38;101986.75;;;2.89;78.22
80188;BME280;73735;52.134;5.436;2024-03-08T01:53:07;101979.91;;;2.85;78.34
80188;BME280;73735;52.134;5.436;2024-03-08T01:55:36;101980.00;;;2.82;77.99
80188;BME280;73735;52.134;5.436;2024-03-08T01:58:05;101974.78;;;2.82;78.29
80188;BME280;73735;52.134;5.436;2024-03-08T02:00:33;101986.13;;;2.81;77.97
80188;BME280;73735;52.134;5.436;2024-03-08T02:03:01;101974.91;;;2.79;78.12
80188;BME280;73735;52.134;5.436;2024-03-08T02:05:28;101976.75;;;2.74;78.01
80188;BME280;73735;52.134;5.436;2024-03-08T02:07:54;101972.56;;;2.68;78.26
80188;BME280;73735;52.134;5.436;2024-03-08T02:10:21;101968.22;;;2.69;77.89
80188;BME280;73735;52.134;5.436;2024-03-08T02:12:48;101968.34;;;2.66;78.33
80188;BME280;73735;52.134;5.436;2024-03-08T02:15:15;101963.91;;;2.68;78.50
80188;BME280;73735;52.134;5.436;2024-03-08T02:17:41;101964.72;;;2.70;78.43
80188;BME280;73735;52.134;5.436;2024-03-08T02:20:09;101969.06;;;2.69;78.05
80188;BME280;73735;52.134;5.436;2024-03-08T02:22:36;101960.47;;;2.67;78.23
80188;BME280;73735;52.134;5.436;2024-03-08T02:25:03;101958.00;;;2.63;77.97
80188;BME280;73735;52.134;5.436;2024-03-08T02:27:31;101958.13;;;2.58;78.10
80188;BME280;73735;52.134;5.436;2024-03-08T02:29:59;101947.78;;;2.57;78.18
80188;BME280;73735;52.134;5.436;2024-03-08T02:32:26;101946.97;;;2.55;78.03
80188;BME280;73735;52.134;5.436;2024-03-08T02:34:56;101943.53;;;2.53;78.11
80188;BME280;73735;52.134;5.436;2024-03-08T02:37:23;101941.75;;;2.55;78.53
80188;BME280;73735;52.134;5.436;2024-03-08T02:39:49;101941.59;;;2.61;78.21
80188;BME280;73735;52.134;5.436;2024-03-08T02:42:16;101940.88;;;2.56;77.84
80188;BME280;73735;52.134;5.436;2024-03-08T02:44:43;101939.28;;;2.52;77.94
80188;BME280;73735;52.134;5.436;2024-03-08T02:47:10;101928.94;;;2.48;77.75
80188;BME280;73735;52.134;5.436;2024-03-08T02:49:37;101926.31;;;2.50;78.15
80188;BME280;73735;52.134;5.436;2024-03-08T02:52:04;101922.97;;;2.45;77.90
80188;BME280;73735;52.134;5.436;2024-03-08T02:54:31;101921.34;;;2.41;77.95
80188;BME280;73735;52.134;5.436;2024-03-08T02:56:57;101920.44;;;2.42;77.95
80188;BME280;73735;52.134;5.436;2024-03-08T02:59:24;101922.19;;;2.41;77.82
80188;BME280;73735;52.134;5.436;2024-03-08T03:01:50;101916.09;;;2.42;77.78
80188;BME280;73735;52.134;5.436;2024-03-08T03:04:17;101907.47;;;2.42;77.57
80188;BME280;73735;52.134;5.436;2024-03-08T03:06:43;101909.19;;;2.41;77.43
80188;BME280;73735;52.134;5.436;2024-03-08T03:09:09;101905.00;;;2.37;77.78
80188;BME280;73735;52.134;5.436;2024-03-08T03:11:36;101902.31;;;2.40;77.67
80188;BME280;73735;52.134;5.436;2024-03-08T03:14:04;101903.22;;;2.38;77.59
80188;BME280;73735;52.134;5.436;2024-03-08T03:16:30;101897.13;;;2.39;77.38
80188;BME280;73735;52.134;5.436;2024-03-08T03:18:57;101902.44;;;2.36;77.61
80188;BME280;73735;52.134;5.436;2024-03-08T03:21:28;101895.59;;;2.33;77.62
80188;BME280;73735;52.134;5.436;2024-03-08T03:23:57;101895.69;;;2.29;77.51
80188;BME280;73735;52.134;5.436;2024-03-08T03:26:25;101893.06;;;2.30;77.39
80188;BME280;73735;52.134;5.436;2024-03-08T03:28:52;101893.91;;;2.31;77.34
80188;BME280;73735;52.134;5.436;2024-03-08T03:31:20;101882.78;;;2.26;77.48
80188;BME280;73735;52.134;5.436;2024-03-08T03:33:46;101881.97;;;2.24;77.27
80188;BME280;73735;52.134;5.436;2024-03-08T03:36:13;101882.94;;;2.21;77.22
80188;BME280;73735;52.134;5.436;2024-03-08T03:38:40;101881.22;;;2.20;77.11
80188;BME280;73735;52.134;5.436;2024-03-08T03:41:07;101878.66;;;2.19;77.31
80188;BME280;73735;52.134;5.436;2024-03-08T03:43:37;101876.19;;;2.14;77.40
80188;BME280;73735;52.134;5.436;2024-03-08T03:46:07;101874.47;;;2.13;77.37
80188;BME280;73735;52.134;5.436;2024-03-08T03:48:34;101872.69;;;2.15;77.29
80188;BME280;73735;52.134;5.436;2024-03-08T03:51:00;101877.03;;;2.15;77.32
80188;BME280;73735;52.134;5.436;2024-03-08T03:53:27;101874.59;;;2.08;77.48
80188;BME280;73735;52.134;5.436;2024-03-08T03:55:53;101869.34;;;2.10;77.60
80188;BME280;73735;52.134;5.436;2024-03-08T03:58:20;101872.75;;;2.12;77.67
80188;BME280;73735;52.134;5.436;2024-03-08T04:00:48;101872.75;;;2.12;77.08
80188;BME280;73735;52.134;5.436;2024-03-08T04:03:15;101869.41;;;2.08;77.36
80188;BME280;73735;52.134;5.436;2024-03-08T04:05:43;101865.94;;;2.08;76.84
80188;BME280;73735;52.134;5.436;2024-03-08T04:08:09;101870.31;;;2.07;77.20
80188;BME280;73735;52.134;5.436;2024-03-08T04:10:36;101860.84;;;2.05;77.06
80188;BME280;73735;52.134;5.436;2024-03-08T04:13:03;101861.72;;;2.05;77.03
80188;BME280;73735;52.134;5.436;2024-03-08T04:15:30;101856.50;;;2.05;77.18
80188;BME280;73735;52.134;5.436;2024-03-08T04:17:56;101862.63;;;2.03;76.68
80188;BME280;73735;52.134;5.436;2024-03-08T04:20:24;101856.50;;;2.05;77.08
80188;BME280;73735;52.134;5.436;2024-03-08T04:22:50;101854.81;;;2.04;76.66
80188;BME280;73735;52.134;5.436;2024-03-08T04:25:17;101855.69;;;2.03;76.81
80188;BME280;73735;52.134;5.436;2024-03-08T04:27:44;101847.09;;;2.01;77.25
80188;BME280;73735;52.134;5.436;2024-03-08T04:30:11;101849.72;;;2.00;76.77
80188;BME280;73735;52.134;5.436;2024-03-08T04:32:38;101855.03;;;1.95;76.93
80188;BME280;73735;52.134;5.436;2024-03-08T04:35:05;101852.44;;;1.95;76.40
80188;BME280;73735;52.134;5.436;2024-03-08T04:37:32;101845.59;;;1.93;76.79
80188;BME280;73735;52.134;5.436;2024-03-08T04:39:58;101840.41;;;1.93;76.75
80188;BME280;73735;52.134;5.436;2024-03-08T04:42:26;101843.00;;;1.93;76.33
80188;BME280;73735;52.134;5.436;2024-03-08T04:44:55;101839.56;;;1.92;76.49
80188;BME280;73735;52.134;5.436;2024-03-08T04:47:21;101836.09;;;1.92;76.96
80188;BME280;73735;52.134;5.436;2024-03-08T04:49:48;101840.50;;;1.90;76.77
80188;BME280;73735;52.134;5.436;2024-03-08T04:52:14;101840.59;;;1.85;76.59
80188;BME280;73735;52.134;5.436;2024-03-08T04:54:41;101830.19;;;1.87;76.78
80188;BME280;73735;52.134;5.436;2024-03-08T04:57:08;101834.44;;;1.89;76.19
80188;BME280;73735;52.134;5.436;2024-03-08T04:59:35;101830.09;;;1.90;76.64
80188;BME280;73735;52.134;5.436;2024-03-08T05:02:02;101824.09;;;1.88;76.25
80188;BME280;73735;52.134;5.436;2024-03-08T05:04:29;101831.00;;;1.89;76.56
80188;BME280;73735;52.134;5.436;2024-03-08T05:06:56;101830.91;;;1.92;76.57
80188;BME280;73735;52.134;5.436;2024-03-08T05:09:22;101829.22;;;1.91;76.25
80188;BME280;73735;52.134;5.436;2024-03-08T05:11:50;101833.63;;;1.87;76.27
80188;BME280;73735;52.134;5.436;2024-03-08T05:14:16;101835.44;;;1.84;76.57
80188;BME280;73735;52.134;5.436;2024-03-08T05:16:44;101828.53;;;1.83;76.55
80188;BME280;73735;52.134;5.436;2024-03-08T05:19:19;101826.84;;;1.82;76.70
80188;BME280;73735;52.134;5.436;2024-03-08T05:21:47;101832.22;;;1.75;76.30
80188;BME280;73735;52.134;5.436;2024-03-08T05:24:14;101821.81;;;1.75;76.31
80188;BME280;73735;52.134;5.436;2024-03-08T05:26:42;101823.59;;;1.73;76.86
80188;BME280;73735;52.134;5.436;2024-03-08T05:29:09;101823.69;;;1.70;76.20
80188;BME280;73735;52.134;5.436;2024-03-08T05:31:43;101822.00;;;1.68;76.97
80188;BME280;73735;52.134;5.436;2024-03-08T05:34:11;101825.38;;;1.71;76.60
80188;BME280;73735;52.134;5.436;2024-03-08T05:36:41;101819.44;;;1.66;76.69
80188;BME280;73735;52.134;5.436;2024-03-08T05:39:13;101816.09;;;1.63;76.63
80188;BME280;73735;52.134;5.436;2024-03-08T05:41:40;101813.53;;;1.61;76.83
80188;BME280;73735;52.134;5.436;2024-03-08T05:44:07;101813.63;;;1.58;76.87
80188;BME280;73735;52.134;5.436;2024-03-08T05:46:34;101806.72;;;1.57;77.14
80188;BME280;73735;52.134;5.436;2024-03-08T05:49:05;101807.56;;;1.58;77.02
80188;BME280;73735;52.134;5.436;2024-03-08T05:51:33;101809.31;;;1.57;76.59
80188;BME280;73735;52.134;5.436;2024-03-08T05:54:01;101809.38;;;1.54;77.09
80188;BME280;73735;52.134;5.436;2024-03-08T05:56:29;101805.25;;;1.47;76.67
80188;BME280;73735;52.134;5.436;2024-03-08T05:58:56;101804.31;;;1.50;76.99
80188;BME280;73735;52.134;5.436;2024-03-08T06:01:23;101799.22;;;1.47;76.87
80188;BME280;73735;52.134;5.436;2024-03-08T06:03:49;101800.06;;;1.47;76.80
80188;BME280;73735;52.134;5.436;2024-03-08T06:06:15;101794.00;;;1.48;76.97
80188;BME280;73735;52.134;5.436;2024-03-08T06:08:44;101790.34;;;1.55;77.13
80188;BME280;73735;52.134;5.436;2024-03-08T06:11:10;101792.97;;;1.54;76.74
80188;BME280;73735;52.134;5.436;2024-03-08T06:13:37;101793.84;;;1.53;77.32
80188;BME280;73735;52.134;5.436;2024-03-08T06:16:03;101787.78;;;1.54;76.74
80188;BME280;73735;52.134;5.436;2024-03-08T06:18:31;101791.28;;;1.51;76.56
80188;BME280;73735;52.134;5.436;2024-03-08T06:20:57;101791.25;;;1.53;76.68
80188;BME280;73735;52.134;5.436;2024-03-08T06:23:24;101789.59;;;1.50;76.39
80188;BME280;73735;52.134;5.436;2024-03-08T06:25:50;101786.22;;;1.48;76.82
80188;BME280;73735;52.134;5.436;2024-03-08T06:28:17;101792.19;;;1.50;76.92
80188;BME280;73735;52.134;5.436;2024-03-08T06:30:43;101786.88;;;1.55;76.97
80188;BME280;73735;52.134;5.436;2024-03-08T06:33:10;101783.34;;;1.57;77.02
80188;BME280;73735;52.134;5.436;2024-03-08T06:35:37;101786.78;;;1.59;76.27
80188;BME280;73735;52.134;5.436;2024-03-08T06:38:06;101784.22;;;1.58;76.72
80188;BME280;73735;52.134;5.436;2024-03-08T06:40:32;101787.59;;;1.61;76.68
80188;BME280;73735;52.134;5.436;2024-03-08T06:42:59;101785.78;;;1.63;77.04
80188;BME280;73735;52.134;5.436;2024-03-08T06:45:25;101789.34;;;1.61;76.74
80188;BME280;73735;52.134;5.436;2024-03-08T06:47:52;101779.81;;;1.61;76.31
80188;BME280;73735;52.134;5.436;2024-03-08T06:50:18;101778.72;;;1.68;76.69
80188;BME280;73735;52.134;5.436;2024-03-08T06:52:45;101774.16;;;1.78;76.44
80188;BME280;73735;52.134;5.436;2024-03-08T06:55:14;101777.66;;;1.77;76.10
80188;BME280;73735;52.134;5.436;2024-03-08T06:57:40;101777.59;;;1.78;76.35
80188;BME280;73735;52.134;5.436;2024-03-08T07:00:08;101774.09;;;1.80;76.08
80188;BME280;73735;52.134;5.436;2024-03-08T07:02:44;101778.31;;;1.84;75.79
80188;BME280;73735;52.134;5.436;2024-03-08T07:05:19;101779.13;;;1.86;76.08
80188;BME280;73735;52.134;5.436;2024-03-08T07:07:46;101778.88;;;1.95;75.74
80188;BME280;73735;52.134;5.436;2024-03-08T07:10:15;101774.41;;;2.00;75.41
80188;BME280;73735;52.134;5.436;2024-03-08T07:12:43;101765.72;;;2.01;75.32
80188;BME280;73735;52.134;5.436;2024-03-08T07:15:09;101766.50;;;2.04;75.13
80188;BME280;73735;52.134;5.436;2024-03-08T07:17:42;101771.56;;;2.09;75.45
80188;BME280;73735;52.134;5.436;2024-03-08T07:20:11;101773.00;;;2.19;75.05
80188;BME280;73735;52.134;5.436;2024-03-08T07:22:39;101779.75;;;2.25;75.08
80188;BME280;73735;52.134;5.436;2024-03-08T07:25:06;101764.63;;;2.39;74.66
80188;BME280;73735;52.134;5.436;2024-03-08T07:27:52;101764.78;;;2.34;74.09
80188;BME280;73735;52.134;5.436;2024-03-08T07:30:20;101769.69;;;2.43;74.09
80188;BME280;73735;52.134;5.436;2024-03-08T07:33:06;101754.00;;;2.46;73.93
80188;BME280;73735;52.134;5.436;2024-03-08T07:35:34;101751.28;;;2.51;73.77
80188;BME280;73735;52.134;5.436;2024-03-08T07:38:04;101753.72;;;2.56;73.53
80188;BME280;73735;52.134;5.436;2024-03-08T07:40:41;101752.56;;;2.66;73.78
80188;BME280;73735;52.134;5.436;2024-03-08T07:43:11;101743.66;;;2.73;73.48
80188;BME280;73735;52.134;5.436;2024-03-08T07:45:38;101743.47;;;2.79;72.99
80188;BME280;73735;52.134;5.436;2024-03-08T07:48:05;101742.38;;;2.86;72.99
80188;BME280;73735;52.134;5.436;2024-03-08T07:50:40;101743.81;;;2.96;72.72
80188;BME280;73735;52.134;5.436;2024-03-08T07:53:07;101742.09;;;2.95;72.32
80188;BME280;73735;52.134;5.436;2024-03-08T07:55:35;101736.78;;;2.98;72.28
80188;BME280;73735;52.134;5.436;2024-03-08T07:58:02;101741.03;;;3.01;71.83
80188;BME280;73735;52.134;5.436;2024-03-08T08:00:29;101736.59;;;3.04;71.96
80188;BME280;73735;52.134;5.436;2024-03-08T08:02:57;101726.09;;;3.07;71.83
80188;BME280;73735;52.134;5.436;2024-03-08T08:05:24;101723.22;;;3.15;71.58
80188;BME280;73735;52.134;5.436;2024-03-08T08:07:50;101714.59;;;3.13;71.51
80188;BME280;73735;52.134;5.436;2024-03-08T08:10:19;101714.41;;;3.19;71.73
80188;BME280;73735;52.134;5.436;2024-03-08T08:12:51;101716.75;;;3.27;71.55
80188;BME280;73735;52.134;5.436;2024-03-08T08:15:17;101714.69;;;3.36;71.46
80188;BME280;73735;52.134;5.436;2024-03-08T08:17:44;101710.34;;;3.37;70.54
80188;BME280;73735;52.134;5.436;2024-03-08T08:20:12;101702.34;;;3.66;71.03
80188;BME280;73735;52.134;5.436;2024-03-08T08:22:42;101704.00;;;3.69;70.58
80188;BME280;73735;52.134;5.436;2024-03-08T08:25:12;101706.56;;;3.70;70.62
80188;BME280;73735;52.134;5.436;2024-03-08T08:27:39;101697.16;;;3.66;70.31
80188;BME280;73735;52.134;5.436;2024-03-08T08:30:06;101701.56;;;3.64;69.46
80188;BME280;73735;52.134;5.436;2024-03-08T08:32:35;101702.25;;;3.69;69.85
80188;BME280;73735;52.134;5.436;2024-03-08T08:35:03;101695.91;;;3.76;69.83
80188;BME280;73735;52.134;5.436;2024-03-08T08:37:31;101689.75;;;3.79;69.34
80188;BME280;73735;52.134;5.436;2024-03-08T08:39:58;101693.00;;;3.85;69.71
80188;BME280;73735;52.134;5.436;2024-03-08T08:42:24;101682.25;;;3.93;69.50
80188;BME280;73735;52.134;5.436;2024-03-08T08:44:51;101681.31;;;3.96;69.34
80188;BME280;73735;52.134;5.436;2024-03-08T08:47:20;101677.59;;;4.01;69.14
80188;BME280;73735;52.134;5.436;2024-03-08T08:49:46;101669.69;;;4.04;69.01
80188;BME280;73735;52.134;5.436;2024-03-08T08:52:13;101676.31;;;4.13;68.51
80188;BME280;73735;52.134;5.436;2024-03-08T08:54:43;101676.31;;;4.13;68.38
80188;BME280;73735;52.134;5.436;2024-03-08T08:57:17;101680.38;;;4.20;68.25
80188;BME280;73735;52.134;5.436;2024-03-08T08:59:44;101669.63;;;4.29;67.90
80188;BME280;73735;52.134;5.436;2024-03-08T09:02:11;101666.91;;;4.31;68.12
80188;BME280;73735;52.134;5.436;2024-03-08T09:04:43;101666.22;;;4.27;67.42
80188;BME280;73735;52.134;5.436;2024-03-08T09:07:12;101660.88;;;4.30;67.69
80188;BME280;73735;52.134;5.436;2024-03-08T09:09:42;101657.09;;;4.37;67.97
80188;BME280;73735;52.134;5.436;2024-03-08T09:12:08;101647.31;;;4.44;67.28
80188;BME280;73735;52.134;5.436;2024-03-08T09:14:36;101652.13;;;4.53;67.48
80188;BME280;73735;52.134;5.436;2024-03-08T09:17:02;101647.44;;;4.61;67.38
80188;BME280;73735;52.134;5.436;2024-03-08T09:19:29;101650.84;;;4.63;67.08
80188;BME280;73735;52.134;5.436;2024-03-08T09:21:56;101636.84;;;4.66;67.60
80188;BME280;73735;52.134;5.436;2024-03-08T09:24:22;101637.38;;;4.74;67.51
80188;BME280;73735;52.134;5.436;2024-03-08T09:26:49;101636.94;;;4.84;67.18
80188;BME280;73735;52.134;5.436;2024-03-08T09:29:15;101629.84;;;4.88;66.70
80188;BME280;73735;52.134;5.436;2024-03-08T09:31:42;101621.00;;;4.90;66.61
80188;BME280;73735;52.134;5.436;2024-03-08T09:34:08;101629.19;;;5.03;67.42
80188;BME280;73735;52.134;5.436;2024-03-08T09:36:42;101618.47;;;5.09;66.27
80188;BME280;73735;52.134;5.436;2024-03-08T09:39:09;101610.53;;;5.12;66.61
80188;BME280;73735;52.134;5.436;2024-03-08T09:41:35;101612.88;;;5.18;66.04
80188;BME280;73735;52.134;5.436;2024-03-08T09:44:03;101607.56;;;5.20;66.35
80188;BME280;73735;52.134;5.436;2024-03-08T09:46:30;101606.19;;;5.31;66.00
80188;BME280;73735;52.134;5.436;2024-03-08T09:48:56;101598.84;;;5.40;65.30
80188;BME280;73735;52.134;5.436;2024-03-08T09:51:27;101603.88;;;5.44;65.44
80188;BME280;73735;52.134;5.436;2024-03-08T09:53:54;101578.81;;;5.40;64.62
80188;BME280;73735;52.134;5.436;2024-03-08T09:56:22;101585.41;;;5.49;65.03
80188;BME280;73735;52.134;5.436;2024-03-08T09:58:49;101578.19;;;5.54;65.51
80188;BME280;73735;52.134;5.436;2024-03-08T10:01:57;101578.53;;;5.84;65.91
80188;BME280;73735;52.134;5.436;2024-03-08T10:04:23;101574.72;;;5.92;65.53
80188;BME280;73735;52.134;5.436;2024-03-08T10:06:50;101573.69;;;5.95;64.66
80188;BME280;73735;52.134;5.436;2024-03-08T10:09:16;101569.25;;;5.97;64.07
80188;BME280;73735;52.134;5.436;2024-03-08T10:11:43;101561.66;;;6.10;64.08
80188;BME280;73735;52.134;5.436;2024-03-08T10:14:10;101558.91;;;6.13;64.26
80188;BME280;73735;52.134;5.436;2024-03-08T10:16:40;101557.69;;;6.20;64.24
80188;BME280;73735;52.134;5.436;2024-03-08T10:19:06;101551.56;;;6.21;63.83
80188;BME280;73735;52.134;5.436;2024-03-08T10:21:34;101542.25;;;6.32;63.64
80188;BME280;73735;52.134;5.436;2024-03-08T10:24:02;101542.56;;;6.44;63.44
80188;BME280;73735;52.134;5.436;2024-03-08T10:26:30;101534.56;;;6.47;62.91
80188;BME280;73735;52.134;5.436;2024-03-08T10:28:56;101527.50;;;6.49;63.07
80188;BME280;73735;52.134;5.436;2024-03-08T10:31:24;101526.16;;;6.57;63.03
80188;BME280;73735;52.134;5.436;2024-03-08T10:33:50;101518.88;;;6.64;63.09
80188;BME280;73735;52.134;5.436;2024-03-08T10:36:17;101517.38;;;6.76;62.82
80188;BME280;73735;52.134;5.436;2024-03-08T10:38:45;101509.19;;;6.99;62.12
80188;BME280;73735;52.134;5.436;2024-03-08T10:41:14;101506.91;;;6.93;61.24
80188;BME280;73735;52.134;5.436;2024-03-08T10:44:10;101494.72;;;6.92;61.46
80188;BME280;73735;52.134;5.436;2024-03-08T10:47:00;101489.00;;;7.01;61.74
80188;BME280;73735;52.134;5.436;2024-03-08T10:49:31;101491.16;;;7.10;60.81
80188;BME280;73735;52.134;5.436;2024-03-08T10:52:05;101484.72;;;7.16;61.40
80188;BME280;73735;52.134;5.436;2024-03-08T10:54:36;101484.81;;;7.14;60.73
80188;BME280;73735;52.134;5.436;2024-03-08T10:57:12;101481.03;;;7.20;60.83
80188;BME280;73735;52.134;5.436;2024-03-08T10:59:39;101481.63;;;7.25;60.78
80188;BME280;73735;52.134;5.436;2024-03-08T11:02:06;101469.47;;;7.24;61.14
80188;BME280;73735;52.134;5.436;2024-03-08T11:04:32;101459.91;;;7.38;60.50
80188;BME280;73735;52.134;5.436;2024-03-08T11:07:00;101454.16;;;7.48;60.11
80188;BME280;73735;52.134;5.436;2024-03-08T11:09:36;101451.22;;;7.54;59.51
80188;BME280;73735;52.134;5.436;2024-03-08T11:12:26;101445.38;;;7.49;59.18
80188;BME280;73735;52.134;5.436;2024-03-08T11:14:59;101443.50;;;7.51;59.07
80188;BME280;73735;52.134;5.436;2024-03-08T11:19:56;101428.38;;;7.71;59.26
80188;BME280;73735;52.134;5.436;2024-03-08T11:22:29;101428.59;;;7.83;58.83
80188;BME280;73735;52.134;5.436;2024-03-08T11:25:07;101413.25;;;7.91;59.53
80188;BME280;73735;52.134;5.436;2024-03-08T11:27:37;101411.13;;;7.97;59.33
80188;BME280;73735;52.134;5.436;2024-03-08T11:30:05;101403.75;;;8.04;58.52
80188;BME280;73735;52.134;5.436;2024-03-08T11:32:46;101402.47;;;8.11;58.74
80188;BME280;73735;52.134;5.436;2024-03-08T11:35:21;101393.56;;;8.13;58.19
80188;BME280;73735;52.134;5.436;2024-03-08T11:37:49;101392.16;;;8.22;58.04
80188;BME280;73735;52.134;5.436;2024-03-08T11:40:16;101381.13;;;8.31;57.80
80188;BME280;73735;52.134;5.436;2024-03-08T11:42:46;101376.22;;;8.41;58.21
80188;BME280;73735;52.134;5.436;2024-03-08T11:45:18;101375.72;;;8.48;57.44
80188;BME280;73735;52.134;5.436;2024-03-08T11:47:48;101372.84;;;8.53;57.85
80188;BME280;73735;52.134;5.436;2024-03-08T11:50:16;101365.22;;;8.63;56.71
80188;BME280;73735;52.134;5.436;2024-03-08T11:52:45;101363.25;;;8.66;56.70
80188;BME280;73735;52.134;5.436;2024-03-08T11:55:12;101367.50;;;8.69;55.75
80188;BME280;73735;52.134;5.436;2024-03-08T11:57:39;101357.84;;;8.69;56.04
80188;BME280;73735;52.134;5.436;2024-03-08T12:00:06;101354.28;;;8.70;53.35
80188;BME280;73735;52.134;5.436;2024-03-08T12:03:01;101349.09;;;8.69;53.31
80188;BME280;73735;52.134;5.436;2024-03-08T12:05:27;101343.00;;;8.82;53.37
80188;BME280;73735;52.134;5.436;2024-03-08T12:07:58;101343.94;;;8.81;53.86
80188;BME280;73735;52.134;5.436;2024-03-08T12:10:28;101337.66;;;8.84;53.63
80188;BME280;73735;52.134;5.436;2024-03-08T12:12:57;101330.34;;;8.89;54.59
80188;BME280;73735;52.134;5.436;2024-03-08T12:15:26;101339.59;;;8.95;53.37
80188;BME280;73735;52.134;5.436;2024-03-08T12:17:54;101324.97;;;8.91;53.50
80188;BME280;73735;52.134;5.436;2024-03-08T12:20:24;101319.25;;;8.98;53.34
80188;BME280;73735;52.134;5.436;2024-03-08T12:22:53;101311.25;;;9.00;53.47
80188;BME280;73735;52.134;5.436;2024-03-08T12:25:20;101315.91;;;9.09;52.52
80188;BME280;73735;52.134;5.436;2024-03-08T12:27:47;101306.16;;;9.11;52.70
80188;BME280;73735;52.134;5.436;2024-03-08T12:30:21;101308.41;;;9.17;53.99
80188;BME280;73735;52.134;5.436;2024-03-08T12:35:21;101299.09;;;9.38;53.16
80188;BME280;73735;52.134;5.436;2024-03-08T12:37:50;101292.56;;;9.31;52.54
80188;BME280;73735;52.134;5.436;2024-03-08T12:40:17;101285.38;;;9.20;51.55
80188;BME280;73735;52.134;5.436;2024-03-08T12:42:45;101276.13;;;9.15;51.72
80188;BME280;73735;52.134;5.436;2024-03-08T12:45:15;101288.63;;;9.11;50.92
80188;BME280;73735;52.134;5.436;2024-03-08T12:47:42;101282.63;;;9.09;51.72
80188;BME280;73735;52.134;5.436;2024-03-08T12:50:10;101280.72;;;9.11;51.64
80188;BME280;73735;52.134;5.436;2024-03-08T12:52:37;101269.19;;;9.14;52.36
80188;BME280;73735;52.134;5.436;2024-03-08T12:55:03;101263.94;;;9.14;51.91
80188;BME280;73735;52.134;5.436;2024-03-08T12:57:34;101262.91;;;9.16;53.16
80188;BME280;73735;52.134;5.436;2024-03-08T13:00:02;101261.84;;;9.19;51.99
80188;BME280;73735;52.134;5.436;2024-03-08T13:02:30;101259.34;;;9.17;52.36
80188;BME280;73735;52.134;5.436;2024-03-08T13:04:58;101264.59;;;9.17;51.67
80188;BME280;73735;52.134;5.436;2024-03-08T13:07:25;101259.94;;;9.21;51.73
80188;BME280;73735;52.134;5.436;2024-03-08T13:09:52;101242.72;;;9.17;51.69
80188;BME280;73735;52.134;5.436;2024-03-08T13:12:26;101247.66;;;9.22;52.32